Time;durP1;ratioP1;P1;durP2;ratioP2;P2;SDS_P1;SDS_P2;PMS_P1;PMS_P2;Temp;Humidity;BMP_temperature;BMP_pressure;BME280_temperature;BME280_humidity;BME280_pressure;Samples;Min_cycle;Max_cycle;Signal;HPM_P1;HPM_P2
2022/02/28 00:01:51;;;;;;;24.20;11.05;;;;;;;-144.65;100.00;64500.88;5072257;28;20036;-75
2022/02/28 00:04:18;;;;;;;27.15;12.63;;;;;;;-144.65;100.00;64500.88;5072115;28;20451;-75
2022/02/28 00:06:44;;;;;;;27.90;12.80;;;;;;;-144.65;100.00;64500.88;5072487;28;20024;-76
2022/02/28 00:09:09;;;;;;;23.92;12.93;;;;;;;-144.65;100.00;64500.88;5072127;28;20556;-75
2022/02/28 00:11:35;;;;;;;25.60;13.70;;;;;;;-144.65;100.00;64500.88;5072050;28;20024;-76
2022/02/28 00:14:01;;;;;;;28.55;14.00;;;;;;;-144.65;100.00;64500.88;5071897;28;20029;-76
2022/02/28 00:16:26;;;;;;;26.38;12.55;;;;;;;-144.65;100.00;64500.88;5071921;28;20055;-75
2022/02/28 00:18:51;;;;;;;27.33;13.25;;;;;;;-144.65;100.00;64500.88;5072141;28;20028;-75
2022/02/28 00:21:17;;;;;;;27.20;14.45;;;;;;;-144.65;100.00;64500.88;5072112;28;20031;-75
2022/02/28 00:23:42;;;;;;;28.23;13.85;;;;;;;-144.65;100.00;64500.88;5072263;28;20392;-75
2022/02/28 00:26:08;;;;;;;27.25;13.85;;;;;;;-144.65;100.00;64500.88;5072708;28;20025;-75
2022/02/28 00:28:33;;;;;;;25.92;13.30;;;;;;;-144.65;100.00;64500.88;5073274;28;20051;-75
2022/02/28 00:30:59;;;;;;;31.88;12.40;;;;;;;-144.65;100.00;64500.88;5072176;28;20056;-75
2022/02/28 00:33:24;;;;;;;24.23;12.43;;;;;;;-144.65;100.00;64500.88;5073276;28;20496;-76
2022/02/28 00:35:50;;;;;;;32.95;14.80;;;;;;;-144.65;100.00;64500.88;5072287;28;20025;-76
2022/02/28 00:38:16;;;;;;;29.33;13.77;;;;;;;-144.65;100.00;64500.88;5071666;28;20378;-75
2022/02/28 00:40:42;;;;;;;22.83;12.85;;;;;;;-144.65;100.00;64500.88;5071519;28;20461;-75
2022/02/28 00:43:07;;;;;;;25.13;12.93;;;;;;;-144.65;100.00;64500.88;5070853;28;20107;-75
2022/02/28 00:45:33;;;;;;;26.10;13.48;;;;;;;-144.65;100.00;64500.88;5071004;28;20179;-75
2022/02/28 00:47:58;;;;;;;27.42;14.18;;;;;;;-144.65;100.00;64500.88;5071206;28;20031;-75
2022/02/28 00:50:24;;;;;;;25.00;13.80;;;;;;;-144.65;100.00;64500.88;5071175;28;20115;-75
2022/02/28 00:52:49;;;;;;;26.08;13.18;;;;;;;-144.65;100.00;64500.88;5088220;28;20086;-76
2022/02/28 00:55:14;;;;;;;29.40;14.73;;;;;;;-144.65;100.00;64500.88;5071433;28;20020;-75
2022/02/28 00:57:40;;;;;;;27.38;14.93;;;;;;;-144.65;100.00;64500.88;5071392;28;20834;-75
2022/02/28 01:00:09;;;;;;;29.02;14.82;;;;;;;-144.65;100.00;64500.88;5071445;28;20123;-75
2022/02/28 01:02:35;;;;;;;27.63;14.70;;;;;;;-144.65;100.00;64500.88;5073227;28;20102;-76
2022/02/28 01:05:00;;;;;;;29.10;15.18;;;;;;;-144.65;100.00;64500.88;5071338;28;20465;-75
2022/02/28 01:07:26;;;;;;;27.35;14.38;;;;;;;-144.65;100.00;64500.88;5071165;28;20032;-76
2022/02/28 01:09:51;;;;;;;32.70;14.73;;;;;;;-144.65;100.00;64500.88;5071099;28;20067;-75
2022/02/28 01:12:17;;;;;;;28.00;14.32;;;;;;;-144.65;100.00;64500.88;5071053;28;20070;-75
2022/02/28 01:14:43;;;;;;;24.67;12.77;;;;;;;-144.65;100.00;64500.88;5071201;28;20039;-75
2022/02/28 01:17:08;;;;;;;25.23;13.82;;;;;;;-144.65;100.00;64500.88;5071245;28;20449;-75
2022/02/28 01:19:34;;;;;;;31.60;14.00;;;;;;;-144.65;100.00;64500.88;5071248;28;20051;-77
2022/02/28 01:22:00;;;;;;;26.20;12.85;;;;;;;-144.65;100.00;64500.88;5071557;28;20029;-76
2022/02/28 01:24:26;;;;;;;28.77;14.02;;;;;;;-144.65;100.00;64500.88;5070753;28;20430;-76
2022/02/28 01:26:51;;;;;;;30.33;12.38;;;;;;;-144.65;100.00;64500.88;5071277;28;20039;-76
2022/02/28 01:29:16;;;;;;;28.73;12.82;;;;;;;-144.65;100.00;64500.88;5070965;28;20029;-75
2022/02/28 01:31:42;;;;;;;25.85;12.73;;;;;;;-144.65;100.00;64500.88;5070742;28;20074;-76
2022/02/28 01:34:08;;;;;;;20.58;12.20;;;;;;;-144.65;100.00;64500.88;5070813;28;20039;-76
2022/02/28 01:36:33;;;;;;;26.25;12.43;;;;;;;-144.65;100.00;64500.88;5070855;28;20386;-77
2022/02/28 01:39:00;;;;;;;25.67;12.43;;;;;;;-144.65;100.00;64500.88;5082712;28;20461;-75
2022/02/28 01:41:26;;;;;;;20.83;11.20;;;;;;;-144.65;100.00;64500.88;5081816;28;20080;-76
2022/02/28 01:43:51;;;;;;;23.75;11.77;;;;;;;-144.65;100.00;64500.88;5080928;28;20025;-78
2022/02/28 01:46:17;;;;;;;21.42;11.27;;;;;;;-144.65;100.00;64500.88;5071167;28;20039;-75
2022/02/28 01:48:44;;;;;;;24.13;12.50;;;;;;;-144.65;100.00;64500.88;5073376;28;20039;-75
2022/02/28 01:51:09;;;;;;;24.05;12.20;;;;;;;-144.65;100.00;64500.88;5070648;28;20405;-75
2022/02/28 01:53:35;;;;;;;25.48;12.68;;;;;;;-144.65;100.00;64500.88;5070486;28;20089;-75
2022/02/28 01:56:00;;;;;;;25.42;11.82;;;;;;;-144.65;100.00;64500.88;5071783;28;20037;-75
2022/02/28 01:58:37;;;;;;;23.95;11.18;;;;;;;-144.65;100.00;64500.88;5074583;28;20068;-74
2022/02/28 02:01:04;;;;;;;24.00;12.25;;;;;;;-144.65;100.00;64500.88;5074631;28;20024;-75
2022/02/28 02:03:30;;;;;;;24.65;12.27;;;;;;;-144.65;100.00;64500.88;5074438;28;20158;-74
2022/02/28 02:05:55;;;;;;;24.33;12.05;;;;;;;-144.65;100.00;64500.88;5074619;28;20107;-75
2022/02/28 02:08:20;;;;;;;22.55;12.20;;;;;;;-144.65;100.00;64500.88;5074621;28;20059;-74
2022/02/28 02:10:46;;;;;;;26.42;11.93;;;;;;;-144.65;100.00;64500.88;5074439;28;20032;-75
2022/02/28 02:13:12;;;;;;;21.38;11.13;;;;;;;-144.65;100.00;64500.88;5074072;28;20042;-75
2022/02/28 02:15:39;;;;;;;24.65;12.00;;;;;;;-144.65;100.00;64500.88;5074175;28;20050;-75
2022/02/28 02:18:05;;;;;;;23.58;11.25;;;;;;;-144.65;100.00;64500.88;5074348;28;20024;-75
2022/02/28 02:20:32;;;;;;;21.33;11.13;;;;;;;-144.65;100.00;64500.88;5074210;28;20028;-74
2022/02/28 02:23:01;;;;;;;24.40;11.20;;;;;;;-144.65;100.00;64500.88;5074142;28;20469;-75
2022/02/28 02:25:26;;;;;;;21.33;10.52;;;;;;;-144.65;100.00;64500.88;5073979;28;20484;-75
2022/02/28 02:27:52;;;;;;;20.60;11.27;;;;;;;-144.65;100.00;64500.88;5074665;28;20067;-75
2022/02/28 02:30:18;;;;;;;22.60;11.00;;;;;;;-144.65;100.00;64500.88;5074097;28;20536;-75
2022/02/28 02:32:43;;;;;;;19.60;10.40;;;;;;;-144.65;100.00;64500.88;5073845;28;20025;-75
2022/02/28 02:35:11;;;;;;;22.30;10.73;;;;;;;-144.65;100.00;64500.88;5073793;28;20388;-75
2022/02/28 02:37:36;;;;;;;22.23;11.43;;;;;;;-144.65;100.00;64500.88;5073753;28;20125;-75
2022/02/28 02:40:03;;;;;;;21.25;11.05;;;;;;;-144.65;100.00;64500.88;5073725;28;20073;-75
2022/02/28 02:42:28;;;;;;;21.23;11.82;;;;;;;-144.65;100.00;64500.88;5074815;28;20032;-76
2022/02/28 02:44:54;;;;;;;25.50;11.75;;;;;;;-144.65;100.00;64500.88;5074341;28;20034;-75
2022/02/28 02:47:19;;;;;;;22.80;10.35;;;;;;;-144.65;100.00;64500.88;5073772;28;20031;-76
2022/02/28 02:49:44;;;;;;;24.73;11.05;;;;;;;-144.65;100.00;64500.88;5073748;28;20439;-76
2022/02/28 02:52:10;;;;;;;24.58;11.15;;;;;;;-144.65;100.00;64500.88;5073476;28;20542;-75
2022/02/28 02:54:35;;;;;;;23.88;11.40;;;;;;;-144.65;100.00;64500.88;5073611;28;20028;-75
2022/02/28 02:57:01;;;;;;;24.10;11.55;;;;;;;-144.65;100.00;64500.88;5073791;28;20090;-75
2022/02/28 02:59:26;;;;;;;23.67;12.10;;;;;;;-144.65;100.00;64500.88;5073384;28;20511;-75
2022/02/28 03:01:51;;;;;;;24.80;12.82;;;;;;;-144.65;100.00;64500.88;5073606;28;20029;-75
2022/02/28 03:04:17;;;;;;;21.58;11.38;;;;;;;-144.65;100.00;64500.88;5073612;28;20077;-75
2022/02/28 03:06:42;;;;;;;22.70;11.50;;;;;;;-144.65;100.00;64500.88;5073049;28;20055;-75
2022/02/28 03:09:12;;;;;;;24.45;11.80;;;;;;;-144.65;100.00;64500.88;5073426;28;20027;-75
2022/02/28 03:11:42;;;;;;;22.95;11.75;;;;;;;-144.65;100.00;64500.88;5073246;28;20086;-75
2022/02/28 03:14:08;;;;;;;20.13;11.77;;;;;;;-144.65;100.00;64500.88;5073332;28;20032;-75
2022/02/28 03:16:33;;;;;;;27.27;12.30;;;;;;;-144.65;100.00;64500.88;5073379;28;20039;-76
2022/02/28 03:19:00;;;;;;;25.13;12.73;;;;;;;-144.65;100.00;64500.88;5073279;28;20028;-76
2022/02/28 03:21:25;;;;;;;20.95;11.50;;;;;;;-144.65;100.00;64500.88;5073728;28;20043;-76
2022/02/28 03:23:51;;;;;;;23.55;12.05;;;;;;;-144.65;100.00;64500.88;5073417;28;20099;-76
2022/02/28 03:26:16;;;;;;;25.30;12.32;;;;;;;-144.65;100.00;64500.88;5073890;28;20059;-76
2022/02/28 03:28:41;;;;;;;22.15;11.77;;;;;;;-144.65;100.00;64500.88;5074194;28;20024;-75
2022/02/28 03:31:07;;;;;;;23.65;12.27;;;;;;;-144.65;100.00;64500.88;5072743;28;20117;-75
2022/02/28 03:33:32;;;;;;;23.90;11.65;;;;;;;-144.65;100.00;64500.88;5077149;28;20028;-75
2022/02/28 03:35:58;;;;;;;23.10;11.63;;;;;;;-144.65;100.00;64500.88;5087628;28;20111;-75
2022/02/28 03:38:23;;;;;;;26.55;12.57;;;;;;;-144.65;100.00;64500.88;5092813;28;20028;-75
2022/02/28 03:40:48;;;;;;;25.15;12.32;;;;;;;-144.65;100.00;64500.88;5073503;28;20017;-75
2022/02/28 03:43:14;;;;;;;22.95;12.02;;;;;;;-144.65;100.00;64500.88;5073602;28;20064;-74
2022/02/28 03:45:40;;;;;;;22.90;12.38;;;;;;;-144.65;100.00;64500.88;5073060;28;20030;-75
2022/02/28 03:48:05;;;;;;;23.02;10.90;;;;;;;-144.65;100.00;64500.88;5072574;28;20370;-76
2022/02/28 03:50:31;;;;;;;22.75;11.50;;;;;;;-144.65;100.00;64500.88;5073148;28;20056;-74
2022/02/28 03:52:56;;;;;;;24.70;11.40;;;;;;;-144.65;100.00;64500.88;5092617;28;20028;-74
2022/02/28 03:55:22;;;;;;;22.15;11.88;;;;;;;-144.65;100.00;64500.88;5092216;28;20020;-75
2022/02/28 03:57:47;;;;;;;23.08;10.80;;;;;;;-144.65;100.00;64500.88;5092801;28;20480;-76
2022/02/28 04:00:13;;;;;;;22.83;12.38;;;;;;;-144.65;100.00;64500.88;5092361;28;20036;-75
2022/02/28 04:02:40;;;;;;;21.23;12.00;;;;;;;-144.65;100.00;64500.88;5092244;28;20469;-75
2022/02/28 04:05:06;;;;;;;22.55;11.27;;;;;;;-144.65;100.00;64500.88;5092391;28;20035;-75
2022/02/28 04:07:32;;;;;;;25.15;12.23;;;;;;;-144.65;100.00;64500.88;5092036;28;20381;-76
2022/02/28 04:09:57;;;;;;;23.42;12.25;;;;;;;-144.65;100.00;64500.88;5092591;28;20035;-76
2022/02/28 04:12:23;;;;;;;24.90;11.75;;;;;;;-144.65;100.00;64500.88;5090663;28;20382;-75
2022/02/28 04:14:48;;;;;;;38.60;17.85;;;;;;;-144.65;100.00;64500.88;5092169;28;20028;-75
2022/02/28 04:17:14;;;;;;;29.90;13.50;;;;;;;-144.65;100.00;64500.88;5091938;28;20017;-75
2022/02/28 04:19:39;;;;;;;22.70;12.57;;;;;;;-144.65;100.00;64500.88;5090455;28;20475;-75
2022/02/28 04:22:05;;;;;;;23.77;12.32;;;;;;;-144.65;100.00;64500.88;5091578;28;20023;-75
2022/02/28 04:24:31;;;;;;;24.15;11.88;;;;;;;-144.65;100.00;64500.88;5091227;28;20020;-75
2022/02/28 04:26:57;;;;;;;25.85;12.77;;;;;;;-144.65;100.00;64500.88;5092265;28;20473;-75
2022/02/28 04:29:23;;;;;;;23.80;13.15;;;;;;;-144.65;100.00;64500.88;5091523;28;20028;-75
2022/02/28 04:31:49;;;;;;;27.13;12.00;;;;;;;-144.65;100.00;64500.88;5091732;28;20035;-76
2022/02/28 04:34:14;;;;;;;23.30;12.27;;;;;;;-144.65;100.00;64500.88;5094972;28;20056;-75
2022/02/28 04:36:40;;;;;;;25.27;12.90;;;;;;;-144.65;100.00;64500.88;5091408;28;20020;-75
2022/02/28 04:39:05;;;;;;;30.65;15.38;;;;;;;-144.65;100.00;64500.88;5091723;28;20024;-75
2022/02/28 04:41:31;;;;;;;34.03;13.32;;;;;;;-144.65;100.00;64500.88;5091654;28;20031;-75
2022/02/28 04:43:56;;;;;;;26.95;12.60;;;;;;;-144.65;100.00;64500.88;5091617;28;20499;-75
2022/02/28 04:46:22;;;;;;;22.77;12.43;;;;;;;-144.65;100.00;64500.88;5091587;28;20028;-75
2022/02/28 04:48:47;;;;;;;27.30;13.77;;;;;;;-144.65;100.00;64500.88;5091496;28;20098;-75
2022/02/28 04:51:12;;;;;;;24.05;13.48;;;;;;;-144.65;100.00;64500.88;5091122;28;20024;-74
2022/02/28 04:53:38;;;;;;;20.40;12.40;;;;;;;-144.65;100.00;64500.88;5090955;28;20055;-75
2022/02/28 04:56:05;;;;;;;19.95;12.15;;;;;;;-144.65;100.00;64500.88;5091067;28;20027;-74
2022/02/28 04:58:31;;;;;;;22.20;11.68;;;;;;;-144.65;100.00;64500.88;5091675;28;20081;-75
2022/02/28 05:00:57;;;;;;;25.63;12.52;;;;;;;-144.65;100.00;64500.88;5091281;28;20433;-76
2022/02/28 05:03:22;;;;;;;24.98;12.50;;;;;;;-144.65;100.00;64500.88;5091313;28;20036;-76
2022/02/28 05:05:49;;;;;;;23.33;12.10;;;;;;;-144.65;100.00;64500.88;5091273;28;20024;-75
2022/02/28 05:08:14;;;;;;;26.98;12.80;;;;;;;-144.65;100.00;64500.88;5091532;28;20479;-75
2022/02/28 05:10:40;;;;;;;24.98;12.50;;;;;;;-144.65;100.00;64500.88;5091384;28;20103;-75
2022/02/28 05:13:06;;;;;;;28.10;13.27;;;;;;;-144.65;100.00;64500.88;5091279;28;20060;-76
2022/02/28 05:15:31;;;;;;;29.15;12.30;;;;;;;-144.65;100.00;64500.88;5091353;28;20024;-75
2022/02/28 05:17:56;;;;;;;27.10;14.68;;;;;;;-144.65;100.00;64500.88;5091099;28;20039;-75
2022/02/28 05:20:22;;;;;;;28.80;12.73;;;;;;;-144.65;100.00;64500.88;5091082;28;20020;-75
2022/02/28 05:22:47;;;;;;;26.02;12.30;;;;;;;-144.65;100.00;64500.88;5091085;28;20024;-75
2022/02/28 05:25:13;;;;;;;22.38;11.38;;;;;;;-144.65;100.00;64500.88;5091193;28;20054;-75
2022/02/28 05:27:41;;;;;;;29.25;12.05;;;;;;;-144.65;100.00;64500.88;5091814;28;20050;-75
2022/02/28 05:30:08;;;;;;;22.67;12.82;;;;;;;-144.65;100.00;64500.88;5093274;28;20032;-76
2022/02/28 05:32:34;;;;;;;26.42;12.55;;;;;;;-144.65;100.00;64500.88;5091174;28;20082;-76
2022/02/28 05:35:00;;;;;;;28.63;13.93;;;;;;;-144.65;100.00;64500.88;5091003;28;20111;-75
2022/02/28 05:37:25;;;;;;;28.80;13.15;;;;;;;-144.65;100.00;64500.88;5091400;28;20511;-75
2022/02/28 05:39:51;;;;;;;30.75;13.00;;;;;;;-144.65;100.00;64500.88;5091660;28;20028;-75
2022/02/28 05:42:16;;;;;;;24.95;13.48;;;;;;;-144.65;100.00;64500.88;5091555;28;20027;-76
2022/02/28 05:44:41;;;;;;;29.33;13.88;;;;;;;-144.65;100.00;64500.88;5090898;28;20012;-76
2022/02/28 05:47:07;;;;;;;27.33;13.40;;;;;;;-144.65;100.00;64500.88;5093445;28;20055;-74
2022/02/28 05:49:32;;;;;;;37.28;16.15;;;;;;;-144.65;100.00;64500.88;5094639;28;20384;-75
2022/02/28 05:51:58;;;;;;;32.08;14.45;;;;;;;-144.65;100.00;64500.88;5091850;28;20443;-75
2022/02/28 05:54:23;;;;;;;25.35;14.05;;;;;;;-144.65;100.00;64500.88;5090764;28;20032;-74
2022/02/28 05:56:49;;;;;;;30.58;15.95;;;;;;;-144.65;100.00;64500.88;5090916;28;20020;-75
2022/02/28 05:59:14;;;;;;;32.80;15.80;;;;;;;-144.65;100.00;64500.88;5090858;28;20043;-75
2022/02/28 06:01:40;;;;;;;34.55;15.23;;;;;;;-144.65;100.00;64500.88;5090590;28;20028;-76
2022/02/28 06:04:05;;;;;;;35.53;17.65;;;;;;;-144.65;100.00;64500.88;5090497;28;20020;-75
2022/02/28 06:06:31;;;;;;;35.78;17.85;;;;;;;-144.65;100.00;64500.88;5090687;28;20050;-76
2022/02/28 06:08:57;;;;;;;31.42;16.88;;;;;;;-144.65;100.00;64500.88;5090586;28;20024;-75
2022/02/28 06:11:22;;;;;;;40.85;17.73;;;;;;;-144.65;100.00;64500.88;5090528;28;20069;-75
2022/02/28 06:13:48;;;;;;;43.50;19.77;;;;;;;-144.65;100.00;64500.88;5090585;28;20043;-75
2022/02/28 06:16:15;;;;;;;39.78;19.48;;;;;;;-144.65;100.00;64500.88;5090789;28;20028;-75
2022/02/28 06:18:40;;;;;;;41.10;17.45;;;;;;;-144.65;100.00;64500.88;5090400;28;20469;-75
2022/02/28 06:21:05;;;;;;;38.45;15.82;;;;;;;-144.65;100.00;64500.88;5090403;28;20020;-75
2022/02/28 06:23:31;;;;;;;30.33;16.70;;;;;;;-144.65;100.00;64500.88;5094399;28;20366;-76
2022/02/28 06:25:56;;;;;;;28.33;14.88;;;;;;;-144.65;100.00;64500.88;5092140;28;20035;-76
2022/02/28 06:28:22;;;;;;;27.10;14.50;;;;;;;-144.65;100.00;64500.88;5101035;28;20028;-76
2022/02/28 06:30:47;;;;;;;28.50;14.70;;;;;;;-144.65;100.00;64500.88;5097952;28;20032;-74
2022/02/28 06:33:13;;;;;;;29.58;14.10;;;;;;;-144.65;100.00;64500.88;5094914;28;20062;-76
2022/02/28 06:35:38;;;;;;;39.20;13.73;;;;;;;-144.65;100.00;64500.88;5079442;28;20679;-75
2022/02/28 06:38:11;;;;;;;29.50;13.77;;;;;;;-144.65;100.00;64500.88;5090512;28;20024;-74
2022/02/28 06:40:38;;;;;;;30.10;15.63;;;;;;;-144.65;100.00;64500.88;5075029;28;20036;-76
2022/02/28 06:43:04;;;;;;;29.15;14.70;;;;;;;-144.65;100.00;64500.88;5072783;28;20024;-75
2022/02/28 06:45:29;;;;;;;26.20;14.60;;;;;;;-144.65;100.00;64500.88;5073564;28;20020;-75
2022/02/28 06:47:55;;;;;;;31.73;15.07;;;;;;;-144.65;100.00;64500.88;5073099;28;20017;-75
2022/02/28 06:50:21;;;;;;;27.70;13.77;;;;;;;-144.65;100.00;64500.88;5073284;28;20017;-76
2022/02/28 06:52:47;;;;;;;26.65;14.75;;;;;;;-144.65;100.00;64500.88;5089598;28;20065;-76
2022/02/28 06:55:12;;;;;;;27.60;13.80;;;;;;;-144.65;100.00;64500.88;5109569;28;20066;-78
2022/02/28 06:57:38;;;;;;;28.15;14.75;;;;;;;-144.65;100.00;64500.88;5094049;28;20055;-76
2022/02/28 07:00:04;;;;;;;29.98;13.63;;;;;;;-144.65;100.00;64500.88;5093802;28;20016;-76
2022/02/28 07:02:29;;;;;;;25.48;13.73;;;;;;;-144.65;100.00;64500.88;5093670;28;20077;-74
2022/02/28 07:04:55;;;;;;;33.58;12.57;;;;;;;-144.65;100.00;64500.88;5093490;28;20122;-75
2022/02/28 07:07:20;;;;;;;26.17;13.20;;;;;;;-144.65;100.00;64500.88;5093478;28;20118;-76
2022/02/28 07:09:47;;;;;;;24.50;13.45;;;;;;;-144.65;100.00;64500.88;5092079;28;20031;-76
2022/02/28 07:12:14;;;;;;;25.25;13.20;;;;;;;-144.65;100.00;64500.88;5093191;28;20024;-75
2022/02/28 07:14:40;;;;;;;21.58;12.40;;;;;;;-144.65;100.00;64500.88;5093621;28;20370;-74
2022/02/28 07:17:05;;;;;;;20.33;12.93;;;;;;;-144.65;100.00;64500.88;5093163;28;20102;-73
2022/02/28 07:19:33;;;;;;;23.75;12.18;;;;;;;-144.65;100.00;64500.88;5093483;28;20178;-77
2022/02/28 07:21:59;;;;;;;24.30;12.18;;;;;;;-144.65;100.00;64500.88;5093305;28;20521;-74
2022/02/28 07:24:24;;;;;;;21.90;11.02;;;;;;;-144.65;100.00;64500.88;5092751;28;20098;-73
2022/02/28 07:26:49;;;;;;;34.78;12.45;;;;;;;-144.65;100.00;64500.88;5092843;28;20149;-74
2022/02/28 07:29:15;;;;;;;29.67;11.50;;;;;;;-144.65;100.00;64500.88;5078698;28;20488;-74
2022/02/28 07:31:43;;;;;;;19.48;10.65;;;;;;;-144.65;100.00;64500.88;5072579;28;20052;-74
2022/02/28 07:34:09;;;;;;;25.63;12.65;;;;;;;-144.65;100.00;64500.88;5071639;28;20045;-74
2022/02/28 07:36:35;;;;;;;20.85;11.38;;;;;;;-144.65;100.00;64500.88;5072802;28;20025;-74
2022/02/28 07:39:01;;;;;;;22.38;11.43;;;;;;;-144.65;100.00;64500.88;5072680;28;20039;-74
2022/02/28 07:41:27;;;;;;;23.85;12.75;;;;;;;-144.65;100.00;64500.88;5076379;28;20032;-73
2022/02/28 07:43:52;;;;;;;25.55;13.38;;;;;;;-144.65;100.00;64500.88;5091447;28;20393;-74
2022/02/28 07:46:21;;;;;;;26.58;13.90;;;;;;;-144.65;100.00;64500.88;5090439;28;20031;-74
2022/02/28 07:48:52;;;;;;;26.85;12.80;;;;;;;-144.65;100.00;64500.88;5090957;28;20024;-75
2022/02/28 07:51:18;;;;;;;26.67;13.15;;;;;;;-144.65;100.00;64500.88;5090568;28;20135;-74
2022/02/28 07:53:43;;;;;;;20.77;11.27;;;;;;;-144.65;100.00;64500.88;5088671;28;20503;-75
2022/02/28 07:56:09;;;;;;;21.45;13.55;;;;;;;-144.65;100.00;64500.88;5098074;28;20032;-76
2022/02/28 07:58:34;;;;;;;25.20;12.77;;;;;;;-144.65;100.00;64500.88;5094331;28;20454;-74
2022/02/28 08:01:00;;;;;;;23.85;13.80;;;;;;;-144.65;100.00;64500.88;5092151;28;20039;-75
2022/02/28 08:03:25;;;;;;;30.38;14.82;;;;;;;-144.65;100.00;64500.88;5088145;28;20384;-74
2022/02/28 08:05:50;;;;;;;26.77;13.60;;;;;;;-144.65;100.00;64500.88;5081964;28;20111;-74
2022/02/28 08:08:16;;;;;;;25.38;13.13;;;;;;;-144.65;100.00;64500.88;5080115;28;20085;-74
2022/02/28 08:10:41;;;;;;;21.08;13.35;;;;;;;-144.65;100.00;64500.88;5094456;28;20024;-77
2022/02/28 08:13:07;;;;;;;27.52;11.18;;;;;;;-144.65;100.00;64500.88;5092664;28;20101;-74
2022/02/28 08:15:32;;;;;;;16.55;10.55;;;;;;;-144.65;100.00;64500.88;5094395;28;20089;-73
2022/02/28 08:17:58;;;;;;;21.95;11.73;;;;;;;-144.65;100.00;64500.88;5092163;28;20043;-74
2022/02/28 08:20:23;;;;;;;19.05;10.60;;;;;;;-144.65;100.00;64500.88;5092193;28;20016;-73
2022/02/28 08:22:49;;;;;;;19.67;11.30;;;;;;;-144.65;100.00;64500.88;5092308;28;20024;-74
2022/02/28 08:25:14;;;;;;;25.08;11.05;;;;;;;-144.65;100.00;64500.88;5092076;28;20066;-74
2022/02/28 08:27:40;;;;;;;31.45;10.20;;;;;;;-144.65;100.00;64500.88;5092712;28;20453;-73
2022/02/28 08:30:06;;;;;;;18.95;10.00;;;;;;;-144.65;100.00;64500.88;5085439;28;20025;-74
2022/02/28 08:32:32;;;;;;;19.80;10.10;;;;;;;-144.65;100.00;64500.88;5077166;28;20035;-73
2022/02/28 08:34:57;;;;;;;17.92;9.77;;;;;;;-144.65;100.00;64500.88;5071843;28;20036;-73
2022/02/28 08:37:23;;;;;;;18.60;10.38;;;;;;;-144.65;100.00;64500.88;5075508;28;20012;-73
2022/02/28 08:39:48;;;;;;;18.52;10.10;;;;;;;-144.65;100.00;64500.88;5078684;28;20028;-74
2022/02/28 08:42:17;;;;;;;18.90;10.32;;;;;;;-144.65;100.00;64500.88;5083517;28;20035;-73
2022/02/28 08:44:43;;;;;;;19.85;9.40;;;;;;;-144.65;100.00;64500.88;5087758;28;20012;-73
2022/02/28 08:47:09;;;;;;;17.98;9.90;;;;;;;-144.65;100.00;64500.88;5084866;28;20035;-73
2022/02/28 08:49:35;;;;;;;19.60;10.35;;;;;;;-144.65;100.00;64500.88;5091689;28;20024;-74
2022/02/28 08:52:01;;;;;;;22.40;11.00;;;;;;;-144.65;100.00;64500.88;5074387;28;20005;-73
2022/02/28 08:54:26;;;;;;;21.05;10.57;;;;;;;-144.65;100.00;64500.88;5071280;28;20036;-75
2022/02/28 08:56:52;;;;;;;18.65;9.13;;;;;;;-144.65;100.00;64500.88;5071335;28;20020;-73
2022/02/28 08:59:17;;;;;;;16.60;8.73;;;;;;;-144.65;100.00;64500.88;5071609;28;20067;-73
2022/02/28 09:01:43;;;;;;;17.17;8.60;;;;;;;-144.65;100.00;64500.88;5071464;28;20029;-74
2022/02/28 09:04:08;;;;;;;14.90;8.40;;;;;;;-144.65;100.00;64500.88;5071214;28;20017;-73
2022/02/28 09:06:34;;;;;;;15.20;8.05;;;;;;;-144.65;100.00;64500.88;5070861;28;20070;-73
2022/02/28 09:08:59;;;;;;;16.80;8.85;;;;;;;-144.65;100.00;64500.88;5072373;28;20008;-74
2022/02/28 09:11:24;;;;;;;14.18;8.57;;;;;;;-144.65;100.00;64500.88;5073262;28;20462;-74
2022/02/28 09:13:50;;;;;;;14.40;8.75;;;;;;;-144.65;100.00;64500.88;5071125;28;20029;-73
2022/02/28 09:16:16;;;;;;;13.77;8.93;;;;;;;-144.65;100.00;64500.88;5069715;28;20032;-73
2022/02/28 09:18:41;;;;;;;13.23;8.25;;;;;;;-144.65;100.00;64500.88;5071444;28;20077;-73
2022/02/28 09:21:07;;;;;;;14.70;8.20;;;;;;;-144.65;100.00;64500.88;5070936;28;20028;-73
2022/02/28 09:23:32;;;;;;;13.00;8.00;;;;;;;-144.65;100.00;64500.88;5070886;28;20054;-74
2022/02/28 09:25:58;;;;;;;14.07;8.23;;;;;;;-144.65;100.00;64500.88;5070916;28;20028;-73
2022/02/28 09:28:24;;;;;;;15.45;8.20;;;;;;;-144.65;100.00;64500.88;5071260;28;20017;-79
2022/02/28 09:30:50;;;;;;;13.60;8.18;;;;;;;-144.65;100.00;64500.88;5070739;28;20035;-74
2022/02/28 09:33:15;;;;;;;17.90;8.45;;;;;;;-144.65;100.00;64500.88;5070928;28;20029;-73
2022/02/28 09:35:41;;;;;;;16.65;8.32;;;;;;;-144.65;100.00;64500.88;5070772;28;20115;-73
2022/02/28 09:38:06;;;;;;;17.95;8.88;;;;;;;-144.65;100.00;64500.88;5071073;28;20111;-73
2022/02/28 09:40:32;;;;;;;14.00;7.78;;;;;;;-144.65;100.00;64500.88;5070570;28;20119;-75
2022/02/28 09:43:03;;;;;;;14.40;8.00;;;;;;;-144.65;100.00;64500.88;5070581;28;20424;-73
2022/02/28 09:45:30;;;;;;;14.90;8.90;;;;;;;-144.65;100.00;64500.88;5071098;28;20029;-74
2022/02/28 09:47:56;;;;;;;14.63;7.22;;;;;;;-144.65;100.00;64500.88;5070960;28;20037;-73
2022/02/28 09:50:23;;;;;;;13.93;8.18;;;;;;;-144.65;100.00;64500.88;5071159;28;20060;-75
2022/02/28 09:52:48;;;;;;;17.88;8.23;;;;;;;-144.65;100.00;64500.88;5069754;28;20024;-74
2022/02/28 09:55:15;;;;;;;13.60;7.63;;;;;;;-144.65;100.00;64500.88;5070554;28;20032;-74
2022/02/28 09:57:48;;;;;;;15.57;8.60;;;;;;;-144.65;100.00;64500.88;5070185;28;20060;-80
2022/02/28 10:00:19;;;;;;;14.48;8.65;;;;;;;-144.65;100.00;64500.88;5071006;28;20025;-74
2022/02/28 10:02:45;;;;;;;14.70;8.40;;;;;;;-144.65;100.00;64500.88;5070987;28;20446;-75
2022/02/28 10:05:10;;;;;;;16.00;8.73;;;;;;;-144.65;100.00;64500.88;5075394;28;20113;-78
2022/02/28 10:07:48;;;;;;;15.95;8.00;;;;;;;-144.65;100.00;64500.88;5076921;28;20088;-75
2022/02/28 10:10:13;;;;;;;14.32;7.72;;;;;;;-144.65;100.00;64500.88;5071676;28;20024;-73
2022/02/28 10:12:40;;;;;;;14.60;8.20;;;;;;;-144.65;100.00;64500.88;5070434;28;20492;-73
2022/02/28 10:15:09;;;;;;;16.85;8.43;;;;;;;-144.65;100.00;64500.88;5070540;28;20102;-73
2022/02/28 10:18:10;;;;;;;15.10;8.00;;;;;;;-144.65;100.00;64500.88;5072689;28;20070;-74
2022/02/28 10:20:38;;;;;;;14.60;7.88;;;;;;;-144.65;100.00;64500.88;5012259;28;20053;-73
2022/02/28 10:23:09;;;;;;;13.27;7.75;;;;;;;-144.65;100.00;64500.88;5062614;28;20037;-73
2022/02/28 10:25:43;;;;;;;11.93;7.65;;;;;;;-144.65;100.00;64500.88;5073817;28;20374;-74
2022/02/28 10:28:15;;;;;;;13.73;8.63;;;;;;;-144.65;100.00;64500.88;5074456;28;20785;-73
2022/02/28 10:30:53;;;;;;;19.33;9.98;;;;;;;-144.65;100.00;64500.88;5074882;28;20040;-73
2022/02/28 10:33:19;;;;;;;15.95;8.48;;;;;;;-144.65;100.00;64500.88;5077369;28;20037;-73
2022/02/28 10:36:00;;;;;;;17.23;8.65;;;;;;;-144.65;100.00;64500.88;5074153;28;20024;-72
2022/02/28 10:38:34;;;;;;;14.18;8.32;;;;;;;-144.65;100.00;64500.88;5074059;28;20025;-73
2022/02/28 10:41:01;;;;;;;16.08;7.63;;;;;;;-144.65;100.00;64500.88;5074030;28;20024;-73
2022/02/28 10:43:27;;;;;;;14.07;7.80;;;;;;;-144.65;100.00;64500.88;5072261;28;20600;-73
2022/02/28 10:45:55;;;;;;;15.85;8.65;;;;;;;-144.65;100.00;64500.88;5073966;28;20039;-73
2022/02/28 10:48:21;;;;;;;14.15;8.40;;;;;;;-144.65;100.00;64500.88;5073885;28;20024;-73
2022/02/28 10:50:48;;;;;;;14.32;7.93;;;;;;;-144.65;100.00;64500.88;5084694;28;20032;-73